Terminal Aerodrome Forecast
Issued by NWS

Home | Current Version | Previous Version | Text Only | Print | Product List | Glossary On
Versions: 1 2 3 4 5 6 7 8 9 10 11 12 13 14 15 16 17 18 19
000
FTUS43 KBIS 222300
TAFJMS
TAF
KJMS 222337Z 2300/2324 04009KT P6SM SCT035 BKN150
     FM231200 04009KT 4SM -SHRA BR OVC008
     FM231900 06013KT 6SM -SHRA BR VCTS OVC015CB=

USA.gov is the U.S. government's official web portal to all federal, state and local government web resources and services.